Time;durP1;ratioP1;P1;durP2;ratioP2;P2;SDS_P1;SDS_P2;PMS_P1;PMS_P2;Temp;Humidity;BMP_temperature;BMP_pressure;BME280_temperature;BME280_humidity;BME280_pressure;Samples;Min_cycle;Max_cycle;Signal;HPM_P1;HPM_P2
2021/01/07 00:02:24;;;;;;;1.15;1.00;;;13.70;65.90;;;;;;4997894;28;20383;-75
2021/01/07 00:04:50;;;;;;;1.63;1.23;;;13.70;65.90;;;;;;5010060;28;20080;-73
2021/01/07 00:07:15;;;;;;;1.45;1.15;;;13.70;65.90;;;;;;5025922;28;20032;-74
2021/01/07 00:09:41;;;;;;;1.20;1.00;;;13.70;65.90;;;;;;5051654;28;20371;-74
2021/01/07 00:12:07;;;;;;;1.17;0.95;;;13.70;65.90;;;;;;5030921;28;20025;-74
2021/01/07 00:14:33;;;;;;;1.08;0.98;;;13.70;65.90;;;;;;5037732;28;20041;-73
2021/01/07 00:16:59;;;;;;;1.42;1.20;;;13.70;65.90;;;;;;5047264;28;20056;-74
2021/01/07 00:19:24;;;;;;;1.60;1.02;;;13.70;65.90;;;;;;5047988;28;20094;-73
2021/01/07 00:21:50;;;;;;;1.33;1.00;;;13.70;65.90;;;;;;5050827;28;20393;-74
2021/01/07 00:24:15;;;;;;;1.35;1.25;;;13.70;65.90;;;;;;5046987;28;20033;-73
2021/01/07 00:26:41;;;;;;;1.70;1.25;;;13.70;65.90;;;;;;5032693;28;20476;-73
2021/01/07 00:29:07;;;;;;;1.10;0.98;;;13.70;65.90;;;;;;5046909;28;20525;-74
2021/01/07 00:31:33;;;;;;;1.33;1.02;;;13.70;65.90;;;;;;5043699;28;20033;-73
2021/01/07 00:33:58;;;;;;;1.90;1.10;;;13.70;65.90;;;;;;5032433;28;20482;-73
2021/01/07 00:36:24;;;;;;;1.13;0.98;;;13.70;65.90;;;;;;5021730;28;20059;-73
2021/01/07 00:38:50;;;;;;;1.25;1.00;;;13.70;65.90;;;;;;5051120;28;20033;-73
2021/01/07 00:41:17;;;;;;;1.23;1.10;;;13.60;65.90;;;;;;5048064;28;20025;-74
2021/01/07 00:43:43;;;;;;;1.10;0.95;;;13.70;65.90;;;;;;5041354;28;20094;-73
2021/01/07 00:46:09;;;;;;;1.67;1.30;;;13.70;65.90;;;;;;5031402;28;20033;-73
2021/01/07 00:48:35;;;;;;;1.48;1.15;;;13.70;65.90;;;;;;5051444;28;20040;-73
2021/01/07 00:51:01;;;;;;;1.45;1.15;;;13.70;65.90;;;;;;5031664;28;20025;-73
2021/01/07 00:53:26;;;;;;;1.83;1.27;;;13.70;65.90;;;;;;5030427;28;20159;-73
2021/01/07 00:55:52;;;;;;;1.20;1.00;;;13.70;65.90;;;;;;5027246;28;20108;-73
2021/01/07 00:58:17;;;;;;;2.25;1.23;;;13.70;65.90;;;;;;5047505;28;20033;-73
2021/01/07 01:00:43;;;;;;;1.17;1.05;;;13.70;65.90;;;;;;5044339;28;20040;-73
2021/01/07 01:03:09;;;;;;;1.48;1.05;;;13.70;65.90;;;;;;5037505;28;20032;-73
2021/01/07 01:05:34;;;;;;;1.65;1.10;;;13.70;65.90;;;;;;5051317;28;20031;-73
2021/01/07 01:08:04;;;;;;;1.10;1.00;;;13.70;65.90;;;;;;5028879;28;20172;-73
2021/01/07 01:10:30;;;;;;;1.55;1.17;;;13.70;65.90;;;;;;5049275;28;20053;-73
2021/01/07 01:12:56;;;;;;;1.50;1.10;;;13.70;65.90;;;;;;5039863;28;20123;-73
2021/01/07 01:15:21;;;;;;;1.40;1.13;;;13.70;65.90;;;;;;5033703;28;20074;-73
2021/01/07 01:17:47;;;;;;;1.50;1.27;;;13.70;65.90;;;;;;5046296;28;20048;-74
2021/01/07 01:20:14;;;;;;;1.60;1.20;;;13.70;65.90;;;;;;5049412;28;20098;-74
2021/01/07 01:22:44;;;;;;;1.55;1.10;;;13.70;65.90;;;;;;5043772;28;20029;-74
2021/01/07 01:25:12;;;;;;;1.17;1.08;;;13.70;65.90;;;;;;5045571;28;20021;-73
2021/01/07 01:27:40;;;;;;;1.10;0.98;;;13.70;65.90;;;;;;5047279;28;20040;-73
2021/01/07 01:30:06;;;;;;;;;;;13.70;65.90;;;;;;5042566;28;20549;-74
2021/01/07 01:32:34;;;;;;;1.70;1.20;;;13.70;65.90;;;;;;5046237;28;19909;-73
2021/01/07 01:34:59;;;;;;;1.20;1.10;;;13.70;65.90;;;;;;5041687;28;20018;-73
2021/01/07 01:37:25;;;;;;;1.50;1.20;;;13.70;65.90;;;;;;5028959;28;20284;-73
2021/01/07 01:39:51;;;;;;;1.25;1.02;;;13.70;65.90;;;;;;5039757;28;20055;-73
2021/01/07 01:42:25;;;;;;;0.85;0.75;;;13.70;65.90;;;;;;5044597;28;20482;-73
2021/01/07 01:44:52;;;;;;;0.90;0.90;;;13.70;65.90;;;;;;5038315;28;20033;-74
2021/01/07 01:47:18;;;;;;;1.83;1.40;;;13.70;65.90;;;;;;5034599;28;20031;-73
2021/01/07 01:49:50;;;;;;;1.63;1.30;;;13.70;65.90;;;;;;5049330;28;20463;-73
2021/01/07 01:52:17;;;;;;;1.33;0.90;;;13.70;65.90;;;;;;5047947;28;20021;-73
2021/01/07 01:54:44;;;;;;;2.58;1.25;;;13.70;65.80;;;;;;5031911;28;20022;-74
2021/01/07 01:57:13;;;;;;;1.25;1.15;;;13.70;65.90;;;;;;5040360;28;20513;-73
2021/01/07 01:59:39;;;;;;;1.25;1.13;;;13.70;65.90;;;;;;5053037;28;20079;-73
2021/01/07 02:02:10;;;;;;;1.35;1.10;;;13.70;65.80;;;;;;5047349;28;20033;-74
2021/01/07 02:04:36;;;;;;;1.33;1.23;;;13.70;65.90;;;;;;5028280;28;20079;-73
2021/01/07 02:07:17;;;;;;;1.40;0.98;;;13.70;65.90;;;;;;5033044;28;20032;-74
2021/01/07 02:09:44;;;;;;;1.38;1.00;;;13.70;65.80;;;;;;5024660;28;20041;-74
2021/01/07 02:12:11;;;;;;;1.63;1.02;;;13.70;65.80;;;;;;5032128;28;20426;-73
2021/01/07 02:14:44;;;;;;;1.40;1.17;;;13.70;65.90;;;;;;5033030;28;20030;-73
2021/01/07 02:17:11;;;;;;;1.27;1.10;;;13.70;65.80;;;;;;5027128;28;20040;-73
2021/01/07 02:19:37;;;;;;;0.82;0.80;;;13.70;65.80;;;;;;5033531;28;20059;-74
2021/01/07 02:22:04;;;;;;;1.55;0.93;;;13.70;65.90;;;;;;5015382;28;20021;-73
2021/01/07 02:24:30;;;;;;;1.40;1.15;;;13.70;65.90;;;;;;5024016;28;20034;-73
2021/01/07 02:27:09;;;;;;;1.00;0.88;;;13.70;65.80;;;;;;5038350;28;20025;-73
2021/01/07 02:29:38;;;;;;;;;;;13.60;65.90;;;;;;5018790;28;20041;-73
2021/01/07 02:32:04;;;;;;;1.13;0.88;;;13.70;65.90;;;;;;5016572;28;19913;-74
2021/01/07 02:34:30;;;;;;;1.10;0.93;;;13.70;65.90;;;;;;5033894;28;20036;-73
2021/01/07 02:36:57;;;;;;;1.17;1.00;;;13.70;65.90;;;;;;5020090;28;20033;-74
2021/01/07 02:39:23;;;;;;;1.20;1.00;;;13.70;65.90;;;;;;5028051;28;20064;-73
2021/01/07 02:41:52;;;;;;;0.88;0.80;;;13.70;65.90;;;;;;5033457;28;20061;-74
2021/01/07 02:44:17;;;;;;;1.13;1.02;;;13.70;65.90;;;;;;5033240;28;20057;-73
2021/01/07 02:46:43;;;;;;;1.48;1.10;;;13.70;65.90;;;;;;5007751;28;20110;-73
2021/01/07 02:49:09;;;;;;;1.52;0.80;;;13.70;65.90;;;;;;5033721;28;20037;-73
2021/01/07 02:51:35;;;;;;;1.27;1.10;;;13.60;65.80;;;;;;5034117;28;20029;-73
2021/01/07 02:54:02;;;;;;;1.13;0.93;;;13.70;65.80;;;;;;5033705;28;20033;-73
2021/01/07 02:56:29;;;;;;;1.42;0.90;;;13.70;65.80;;;;;;5028811;28;20457;-73
2021/01/07 02:59:00;;;;;;;0.90;0.80;;;13.60;65.80;;;;;;5022483;28;20035;-73
2021/01/07 03:01:25;;;;;;;1.25;1.05;;;13.60;65.90;;;;;;5030815;28;20129;-74
2021/01/07 03:03:51;;;;;;;1.08;0.98;;;13.60;65.80;;;;;;5032116;28;20160;-73
2021/01/07 03:06:17;;;;;;;1.23;1.13;;;13.70;65.90;;;;;;5033144;28;20086;-74
2021/01/07 03:08:42;;;;;;;1.55;1.05;;;13.70;65.90;;;;;;5025664;28;20046;-73
2021/01/07 03:11:11;;;;;;;0.90;0.90;;;13.60;65.90;;;;;;5032274;28;20057;-73
2021/01/07 03:13:37;;;;;;;1.38;1.10;;;13.70;65.90;;;;;;5023806;28;20092;-73
2021/01/07 03:16:03;;;;;;;0.80;0.80;;;13.60;65.80;;;;;;5017751;28;20026;-74
2021/01/07 03:18:28;;;;;;;1.00;0.90;;;13.60;65.90;;;;;;5005310;28;20065;-73
2021/01/07 03:20:54;;;;;;;1.00;0.90;;;13.70;65.80;;;;;;5033193;28;20480;-74
2021/01/07 03:23:20;;;;;;;1.55;1.08;;;13.70;65.80;;;;;;5027173;28;20034;-73
2021/01/07 03:25:45;;;;;;;0.98;0.88;;;13.70;65.90;;;;;;5032508;28;20068;-73
2021/01/07 03:28:11;;;;;;;1.00;0.90;;;13.70;65.80;;;;;;5021122;28;20139;-73
2021/01/07 03:30:37;;;;;;;1.17;0.80;;;13.70;65.80;;;;;;5017579;28;20034;-73
2021/01/07 03:33:05;;;;;;;0.80;0.80;;;13.70;65.80;;;;;;4998214;28;20069;-74
2021/01/07 03:35:30;;;;;;;;;;;13.70;65.80;;;;;;5031946;28;20025;-74
2021/01/07 03:37:56;;;;;;;0.80;0.80;;;13.70;65.80;;;;;;5027889;28;19917;-73
2021/01/07 03:40:22;;;;;;;1.05;0.75;;;13.60;65.80;;;;;;5014706;28;20032;-73
2021/01/07 03:42:52;;;;;;;1.25;1.08;;;13.70;65.80;;;;;;5026353;28;20025;-74
2021/01/07 03:45:18;;;;;;;1.38;1.20;;;13.70;65.80;;;;;;5013783;28;20052;-73
2021/01/07 03:47:44;;;;;;;1.27;0.98;;;13.70;65.80;;;;;;5020747;28;20463;-73
2021/01/07 03:50:10;;;;;;;1.20;0.80;;;13.70;65.80;;;;;;5031562;28;20033;-73
2021/01/07 03:52:37;;;;;;;1.52;1.27;;;13.60;65.80;;;;;;5032990;28;20542;-74
2021/01/07 03:55:03;;;;;;;1.38;1.10;;;13.60;65.80;;;;;;5019905;28;20032;-73
2021/01/07 03:57:29;;;;;;;1.10;1.00;;;13.60;65.80;;;;;;5032580;28;20044;-73
2021/01/07 03:59:54;;;;;;;1.52;1.00;;;13.70;65.80;;;;;;5031674;28;20025;-73
2021/01/07 04:02:20;;;;;;;0.75;0.70;;;13.60;65.80;;;;;;5008529;28;20378;-74
2021/01/07 04:04:45;;;;;;;1.85;1.10;;;13.60;65.80;;;;;;5010988;28;20063;-74
2021/01/07 04:07:11;;;;;;;1.95;1.40;;;13.70;65.90;;;;;;5032344;28;20034;-74
2021/01/07 04:09:37;;;;;;;1.83;1.10;;;13.70;65.80;;;;;;5026391;28;20390;-73
2021/01/07 04:12:02;;;;;;;1.02;0.93;;;13.60;65.80;;;;;;5025669;28;20370;-73
2021/01/07 04:14:28;;;;;;;0.82;0.75;;;13.60;65.80;;;;;;5018947;28;20030;-73
2021/01/07 04:16:54;;;;;;;1.67;1.08;;;13.70;65.80;;;;;;5015736;28;20101;-74
2021/01/07 04:19:19;;;;;;;1.48;1.08;;;13.60;65.80;;;;;;4998564;28;20034;-73
2021/01/07 04:21:45;;;;;;;2.38;1.48;;;13.60;65.80;;;;;;5034117;28;20037;-74
2021/01/07 04:24:15;;;;;;;1.10;0.93;;;13.60;65.80;;;;;;5022826;28;20049;-74
2021/01/07 04:26:44;;;;;;;0.88;0.88;;;13.60;65.80;;;;;;5008530;28;20493;-74
2021/01/07 04:29:11;;;;;;;1.10;1.00;;;13.60;65.80;;;;;;5027195;28;20040;-73
2021/01/07 04:31:36;;;;;;;1.20;1.08;;;13.60;65.80;;;;;;5012263;28;20029;-74
2021/01/07 04:34:03;;;;;;;0.90;0.75;;;13.60;65.80;;;;;;5031388;28;20025;-73
2021/01/07 04:36:28;;;;;;;1.35;1.00;;;13.70;65.80;;;;;;5019909;28;20026;-74
2021/01/07 04:38:55;;;;;;;1.30;1.08;;;13.70;65.80;;;;;;5019548;28;20041;-74
2021/01/07 04:41:21;;;;;;;1.50;0.95;;;13.60;65.80;;;;;;5010847;28;20172;-73
2021/01/07 04:43:55;;;;;;;1.08;0.90;;;13.60;65.80;;;;;;5014100;28;20040;-75
2021/01/07 04:46:20;;;;;;;0.90;0.80;;;13.60;65.80;;;;;;4995447;28;20141;-73
2021/01/07 04:48:47;;;;;;;0.70;0.70;;;13.70;65.80;;;;;;5024459;28;20464;-74
2021/01/07 04:51:13;;;;;;;0.80;0.80;;;13.70;65.80;;;;;;5019796;28;20112;-74
2021/01/07 04:53:39;;;;;;;0.88;0.70;;;13.60;65.80;;;;;;5010589;28;20173;-73
2021/01/07 04:56:05;;;;;;;0.90;0.82;;;13.60;65.80;;;;;;5006388;28;20072;-74
2021/01/07 04:58:30;;;;;;;1.00;0.90;;;13.60;65.80;;;;;;5014630;28;20115;-74
2021/01/07 05:00:56;;;;;;;1.33;1.00;;;13.60;65.80;;;;;;5016031;28;20100;-74
2021/01/07 05:03:30;;;;;;;1.38;0.90;;;13.60;65.80;;;;;;5023363;28;20489;-75
2021/01/07 05:05:56;;;;;;;1.00;0.80;;;13.70;65.80;;;;;;5030893;28;20041;-76
2021/01/07 05:08:21;;;;;;;1.25;1.00;;;13.60;65.80;;;;;;5021835;28;20057;-74
2021/01/07 05:10:49;;;;;;;0.90;0.70;;;13.70;65.80;;;;;;5047494;28;20374;-75
2021/01/07 05:13:16;;;;;;;1.33;0.90;;;13.60;65.80;;;;;;5032442;28;20028;-74
2021/01/07 05:15:42;;;;;;;1.63;0.90;;;13.60;65.80;;;;;;5029266;28;20028;-75
2021/01/07 05:18:08;;;;;;;1.05;0.80;;;13.60;65.80;;;;;;5050895;28;20041;-75
2021/01/07 05:20:34;;;;;;;1.17;1.08;;;13.60;65.80;;;;;;5052300;28;20393;-74
2021/01/07 05:23:00;;;;;;;1.15;0.90;;;13.60;65.80;;;;;;5045357;28;20108;-74
2021/01/07 05:25:29;;;;;;;1.35;0.93;;;13.70;65.80;;;;;;5046023;28;20438;-73
2021/01/07 05:28:03;;;;;;;0.93;0.80;;;13.60;65.80;;;;;;5045234;28;20112;-74
2021/01/07 05:30:30;;;;;;;0.88;0.73;;;13.70;65.80;;;;;;5039344;28;20057;-74
2021/01/07 05:33:07;;;;;;;0.77;0.77;;;13.60;65.80;;;;;;5030419;28;20088;-73
2021/01/07 05:35:34;;;;;;;1.00;0.80;;;13.60;65.80;;;;;;5043986;28;20035;-75
2021/01/07 05:38:02;;;;;;;0.68;0.60;;;13.60;65.80;;;;;;5047732;28;20133;-73
2021/01/07 05:40:28;;;;;;;2.92;1.88;;;13.70;65.80;;;;;;5035766;28;20373;-74
2021/01/07 05:42:58;;;;;;;0.80;0.80;;;13.60;65.80;;;;;;5036793;28;20116;-74
2021/01/07 05:45:45;;;;;;;0.82;0.80;;;13.60;65.80;;;;;;5031941;28;20120;-74
2021/01/07 05:48:11;;;;;;;0.73;0.73;;;13.60;65.80;;;;;;5032973;28;20045;-73
2021/01/07 05:50:39;;;;;;;1.55;0.82;;;13.60;65.80;;;;;;5041960;28;20473;-75
2021/01/07 05:53:05;;;;;;;0.63;0.63;;;13.60;65.80;;;;;;5045350;28;20017;-74
2021/01/07 05:55:31;;;;;;;0.95;0.90;;;13.60;65.80;;;;;;5021872;28;20053;-74
2021/01/07 05:58:01;;;;;;;1.02;0.93;;;13.60;65.80;;;;;;5053343;28;20033;-74
2021/01/07 06:00:31;;;;;;;0.82;0.82;;;13.60;65.80;;;;;;5050655;28;20033;-74
2021/01/07 06:03:02;;;;;;;1.27;0.90;;;13.60;65.80;;;;;;5039977;28;20116;-74
2021/01/07 06:05:29;;;;;;;1.05;0.90;;;13.60;65.80;;;;;;5058273;28;20535;-74
2021/01/07 06:07:56;;;;;;;0.73;0.73;;;13.60;65.80;;;;;;5054744;28;20095;-74
2021/01/07 06:10:23;;;;;;;1.02;0.70;;;13.70;65.80;;;;;;5046561;28;20475;-73
2021/01/07 06:12:50;;;;;;;1.40;0.90;;;13.60;65.90;;;;;;5052918;28;20028;-73
2021/01/07 06:15:17;;;;;;;1.15;1.00;;;13.60;65.80;;;;;;5052961;28;20060;-73
2021/01/07 06:17:44;;;;;;;1.05;0.95;;;13.60;65.80;;;;;;5048526;28;20072;-73
2021/01/07 06:20:15;;;;;;;0.80;0.80;;;13.70;65.80;;;;;;5026230;28;20108;-73
2021/01/07 06:22:51;;;;;;;1.15;0.70;;;13.60;65.80;;;;;;5037873;28;20891;-72
2021/01/07 06:25:23;;;;;;;1.08;0.75;;;13.60;65.80;;;;;;5044187;28;20113;-73
2021/01/07 06:27:50;;;;;;;1.23;0.95;;;13.60;65.80;;;;;;5040888;28;20068;-73
2021/01/07 06:30:16;;;;;;;0.70;0.67;;;13.60;65.80;;;;;;5035079;28;20040;-74
2021/01/07 06:32:47;;;;;;;1.23;1.08;;;13.60;65.80;;;;;;5050036;28;20462;-73
2021/01/07 06:35:14;;;;;;;1.00;0.90;;;13.60;65.80;;;;;;5044421;28;20030;-73
2021/01/07 06:37:42;;;;;;;1.07;0.83;;;13.70;65.80;;;;;;5044356;28;20033;-73
2021/01/07 06:40:11;;;;;;;0.95;0.75;;;13.60;65.80;;;;;;5048577;28;20375;-73
2021/01/07 06:42:42;;;;;;;1.05;0.77;;;13.60;65.80;;;;;;5044836;28;20063;-74
2021/01/07 06:45:09;;;;;;;0.70;0.70;;;13.60;65.80;;;;;;5036439;28;20087;-74
2021/01/07 06:47:41;;;;;;;1.00;0.90;;;13.60;65.80;;;;;;5065202;28;20080;-74
2021/01/07 06:50:07;;;;;;;1.10;0.82;;;13.70;65.80;;;;;;5052926;28;20037;-73
2021/01/07 06:52:43;;;;;;;0.85;0.80;;;13.60;65.80;;;;;;5052977;28;20466;-73
2021/01/07 06:55:12;;;;;;;0.73;0.70;;;13.60;65.80;;;;;;5050833;28;20236;-73
2021/01/07 06:57:55;;;;;;;1.25;0.95;;;13.60;65.80;;;;;;5028184;28;20029;-73
2021/01/07 07:00:25;;;;;;;0.80;0.80;;;13.60;65.80;;;;;;5045503;28;20502;-74
2021/01/07 07:03:04;;;;;;;0.88;0.73;;;13.60;65.80;;;;;;5046040;28;20021;-73
2021/01/07 07:05:34;;;;;;;1.40;0.90;;;13.60;65.80;;;;;;5038729;28;20029;-73
2021/01/07 07:08:11;;;;;;;1.02;0.80;;;13.60;65.80;;;;;;5042646;28;20100;-74
2021/01/07 07:10:36;;;;;;;1.25;0.88;;;13.70;65.80;;;;;;5041666;28;20044;-73
2021/01/07 07:13:19;;;;;;;0.98;0.88;;;13.60;65.80;;;;;;5049084;28;20425;-74
2021/01/07 07:15:46;;;;;;;1.05;0.85;;;13.60;65.80;;;;;;5047010;28;20036;-73
2021/01/07 07:18:23;;;;;;;0.63;0.60;;;13.60;65.80;;;;;;5048972;28;20045;-74
2021/01/07 07:20:50;;;;;;;1.02;0.90;;;13.60;65.80;;;;;;5051341;28;20064;-73
2021/01/07 07:23:20;;;;;;;0.60;0.60;;;13.60;65.80;;;;;;5041930;28;20032;-74
2021/01/07 07:25:51;;;;;;;0.88;0.80;;;13.60;65.80;;;;;;5048647;28;20025;-73
2021/01/07 07:28:25;;;;;;;1.00;0.80;;;13.70;65.80;;;;;;5034614;28;20083;-73
2021/01/07 07:30:52;;;;;;;1.70;1.10;;;13.60;65.80;;;;;;5032735;28;20378;-74
2021/01/07 07:33:38;;;;;;;0.85;0.63;;;13.70;65.80;;;;;;5045635;28;20117;-74
2021/01/07 07:36:06;;;;;;;1.10;0.98;;;13.70;65.80;;;;;;5048205;28;20021;-74
2021/01/07 07:38:40;;;;;;;1.05;0.73;;;13.60;65.80;;;;;;5054200;28;20083;-74
2021/01/07 07:41:10;;;;;;;0.50;0.50;;;13.60;65.80;;;;;;5053096;28;20035;-73
2021/01/07 07:43:52;;;;;;;1.00;0.90;;;13.60;65.70;;;;;;5049739;28;20150;-73
2021/01/07 07:46:24;;;;;;;0.85;0.85;;;13.70;65.70;;;;;;5049639;28;20051;-74
2021/01/07 07:48:58;;;;;;;0.95;0.85;;;13.70;65.70;;;;;;5034013;28;20116;-73
2021/01/07 07:51:24;;;;;;;0.70;0.70;;;13.70;65.70;;;;;;5015047;28;20474;-72
2021/01/07 07:53:50;;;;;;;1.02;0.90;;;13.70;65.70;;;;;;5031275;28;20029;-73
2021/01/07 07:56:23;;;;;;;0.85;0.70;;;13.70;65.70;;;;;;5048732;28;20036;-75
2021/01/07 07:59:01;;;;;;;0.80;0.70;;;13.70;65.70;;;;;;5047413;28;20040;-73
2021/01/07 08:01:42;;;;;;;1.08;0.80;;;13.70;65.60;;;;;;5033471;28;20056;-72
2021/01/07 08:04:13;;;;;;;0.60;0.60;;;13.70;65.70;;;;;;5049085;28;20041;-72
2021/01/07 08:06:43;;;;;;;0.77;0.63;;;13.70;65.70;;;;;;5046086;28;20033;-72
2021/01/07 08:09:14;;;;;;;1.27;0.98;;;13.70;65.70;;;;;;5035188;28;20059;-73
2021/01/07 08:11:53;;;;;;;0.80;0.80;;;13.70;65.60;;;;;;5033831;28;20053;-72
2021/01/07 08:14:21;;;;;;;1.67;1.00;;;13.70;65.60;;;;;;5049230;28;20057;-73
2021/01/07 08:16:51;;;;;;;1.25;1.00;;;13.70;65.60;;;;;;5047909;28;20107;-72
2021/01/07 08:19:24;;;;;;;0.75;0.70;;;13.70;65.60;;;;;;5053100;28;20044;-73
2021/01/07 08:21:52;;;;;;;0.80;0.80;;;13.70;65.60;;;;;;5044387;28;20025;-72
2021/01/07 08:24:24;;;;;;;1.05;0.90;;;13.70;65.60;;;;;;5051667;28;20474;-72
2021/01/07 08:27:10;;;;;;;0.93;0.80;;;13.70;65.60;;;;;;5032038;28;20029;-72
2021/01/07 08:29:43;;;;;;;0.60;0.60;;;13.70;65.50;;;;;;5041314;28;20913;-72
2021/01/07 08:32:13;;;;;;;0.55;0.52;;;13.70;65.60;;;;;;5058107;28;20029;-72
2021/01/07 08:34:39;;;;;;;1.52;0.93;;;13.70;65.60;;;;;;5061442;28;20374;-73
2021/01/07 08:37:22;;;;;;;0.98;0.82;;;13.80;65.50;;;;;;5032462;28;20029;-72
2021/01/07 08:39:48;;;;;;;0.98;0.85;;;13.70;65.50;;;;;;5049892;28;20469;-72
2021/01/07 08:42:18;;;;;;;1.00;0.90;;;13.70;65.50;;;;;;5055809;28;20043;-72
2021/01/07 08:44:44;;;;;;;0.80;0.80;;;13.70;65.50;;;;;;5045899;28;20033;-73
2021/01/07 08:47:30;;;;;;;1.00;0.90;;;13.80;65.40;;;;;;5046735;28;20025;-73
2021/01/07 08:50:16;;;;;;;0.80;0.80;;;13.80;65.40;;;;;;5039579;28;20192;-74
2021/01/07 08:52:52;;;;;;;0.85;0.75;;;13.80;65.40;;;;;;5043956;28;20030;-74
2021/01/07 08:55:23;;;;;;;0.93;0.70;;;13.80;65.30;;;;;;5051971;28;20031;-74
2021/01/07 08:58:17;;;;;;;1.20;1.08;;;13.80;65.30;;;;;;5050954;28;20037;-74
2021/01/07 09:01:03;;;;;;;1.13;1.05;;;13.80;65.30;;;;;;5055617;28;20032;-74
2021/01/07 09:03:37;;;;;;;0.68;0.65;;;13.80;65.20;;;;;;5051497;28;20033;-74
2021/01/07 09:06:10;;;;;;;0.80;0.80;;;13.80;65.20;;;;;;5048461;28;20482;-73
2021/01/07 09:08:41;;;;;;;1.00;0.90;;;13.80;65.10;;;;;;5030957;28;20572;-73
2021/01/07 09:11:07;;;;;;;1.50;1.00;;;13.80;65.10;;;;;;5037014;28;20033;-73
2021/01/07 09:13:37;;;;;;;1.38;0.93;;;13.80;65.10;;;;;;5032747;28;20095;-73
2021/01/07 09:16:16;;;;;;;1.08;0.88;;;13.80;65.10;;;;;;5051584;28;20031;-74
2021/01/07 09:18:46;;;;;;;0.52;0.52;;;13.80;65.10;;;;;;5050755;28;20116;-73
2021/01/07 09:21:15;;;;;;;0.70;0.70;;;13.80;65.10;;;;;;5051841;28;20025;-73
2021/01/07 09:23:45;;;;;;;0.95;0.88;;;13.80;65.00;;;;;;5029013;28;20036;-73
2021/01/07 09:26:25;;;;;;;0.82;0.82;;;13.80;65.10;;;;;;5041726;28;20029;-74
2021/01/07 09:28:55;;;;;;;0.50;0.50;;;13.90;65.00;;;;;;5047668;28;20501;-74
2021/01/07 09:31:24;;;;;;;1.33;1.17;;;13.80;65.00;;;;;;5018100;28;20040;-73
2021/01/07 09:33:49;;;;;;;1.30;0.98;;;13.90;65.00;;;;;;5033049;28;20028;-74
2021/01/07 09:36:15;;;;;;;0.90;0.60;;;13.90;65.00;;;;;;5050347;28;20382;-73
2021/01/07 09:38:45;;;;;;;0.60;0.60;;;13.90;64.90;;;;;;5037956;28;20470;-75
2021/01/07 09:41:11;;;;;;;0.60;0.60;;;13.90;64.90;;;;;;5052496;28;20030;-75
2021/01/07 09:43:36;;;;;;;0.68;0.68;;;13.90;64.90;;;;;;5050845;28;20021;-73
2021/01/07 09:46:02;;;;;;;1.02;0.93;;;13.90;64.80;;;;;;5049226;28;20017;-73
2021/01/07 09:48:27;;;;;;;0.70;0.70;;;13.90;64.80;;;;;;5041251;28;20069;-74
2021/01/07 09:50:58;;;;;;;0.82;0.82;;;13.90;64.80;;;;;;5050893;28;20078;-73
2021/01/07 09:53:23;;;;;;;0.88;0.82;;;13.90;64.70;;;;;;5044556;28;20119;-73
2021/01/07 09:55:49;;;;;;;0.70;0.60;;;13.90;64.70;;;;;;5035378;28;20092;-73
2021/01/07 09:58:16;;;;;;;0.75;0.70;;;13.90;64.70;;;;;;5049431;28;20037;-73
2021/01/07 10:00:42;;;;;;;1.10;0.90;;;13.90;64.70;;;;;;5050974;28;20493;-73
2021/01/07 10:03:07;;;;;;;2.65;1.00;;;14.00;64.70;;;;;;5036169;28;20025;-73
2021/01/07 10:05:33;;;;;;;0.55;0.55;;;13.90;64.70;;;;;;5032484;28;20025;-73
2021/01/07 10:07:59;;;;;;;1.15;0.90;;;14.00;64.70;;;;;;5036330;28;20057;-76
2021/01/07 10:10:25;;;;;;;0.85;0.60;;;13.90;64.70;;;;;;5030656;28;20030;-74
2021/01/07 10:12:51;;;;;;;0.75;0.65;;;14.00;64.70;;;;;;5029477;28;20035;-73
2021/01/07 10:15:19;;;;;;;0.75;0.55;;;13.90;64.70;;;;;;5030941;28;20108;-73
2021/01/07 10:17:50;;;;;;;0.75;0.70;;;13.90;64.70;;;;;;5028696;28;20026;-73
2021/01/07 10:20:22;;;;;;;0.60;0.60;;;13.90;64.70;;;;;;5033172;28;20025;-73
2021/01/07 10:22:49;;;;;;;0.85;0.65;;;13.90;64.70;;;;;;5033545;28;20360;-74
2021/01/07 10:25:17;;;;;;;0.90;0.65;;;13.90;64.70;;;;;;5012292;28;20120;-73
2021/01/07 10:27:43;;;;;;;0.57;0.57;;;14.00;64.70;;;;;;5024525;28;20025;-74
2021/01/07 10:30:13;;;;;;;0.70;0.70;;;13.90;64.70;;;;;;5025924;28;20029;-73
2021/01/07 10:32:43;;;;;;;1.00;0.90;;;14.00;64.60;;;;;;5018156;28;20060;-73
2021/01/07 10:35:09;;;;;;;0.60;0.60;;;14.00;64.60;;;;;;5017835;28;20025;-74
2021/01/07 10:37:38;;;;;;;0.95;0.80;;;14.00;64.50;;;;;;5014285;28;20081;-73
2021/01/07 10:40:04;;;;;;;0.82;0.77;;;14.00;64.50;;;;;;5033028;28;20030;-74
2021/01/07 10:42:30;;;;;;;0.70;0.70;;;14.00;64.50;;;;;;5013725;28;20091;-73
2021/01/07 10:44:56;;;;;;;0.77;0.63;;;14.00;64.50;;;;;;5016495;28;20026;-73
2021/01/07 10:47:29;;;;;;;0.52;0.52;;;14.10;64.40;;;;;;5029428;28;20064;-73
2021/01/07 10:50:02;;;;;;;0.50;0.50;;;14.10;64.30;;;;;;5034298;28;20046;-73
2021/01/07 10:53:04;;;;;;;0.68;0.68;;;14.10;64.30;;;;;;5015361;28;20025;-73
2021/01/07 10:55:32;;;;;;;1.00;0.77;;;14.10;64.30;;;;;;5026952;28;20029;-73
2021/01/07 10:58:19;;;;;;;1.20;0.80;;;14.10;64.20;;;;;;5030023;28;20467;-74
2021/01/07 11:01:34;;;;;;;0.95;0.77;;;14.10;64.30;;;;;;5030317;28;20407;-73
2021/01/07 11:04:00;;;;;;;1.35;0.88;;;14.10;64.30;;;;;;5004573;28;20038;-73
2021/01/07 11:06:31;;;;;;;1.67;0.98;;;14.00;64.30;;;;;;5013018;28;20049;-74
2021/01/07 11:09:14;;;;;;;0.90;0.70;;;14.10;64.40;;;;;;5025202;28;20050;-73
2021/01/07 11:11:50;;;;;;;0.80;0.63;;;14.10;64.30;;;;;;5034609;28;20025;-74
2021/01/07 11:14:35;;;;;;;0.95;0.90;;;14.10;64.30;;;;;;5027364;28;20087;-73
2021/01/07 11:17:06;;;;;;;0.70;0.60;;;14.00;64.30;;;;;;5027881;28;20037;-75
2021/01/07 11:19:33;;;;;;;0.95;0.70;;;14.00;64.30;;;;;;5014577;28;20033;-74
2021/01/07 11:22:18;;;;;;;0.80;0.80;;;14.10;64.30;;;;;;5024307;28;20470;-73
2021/01/07 11:24:47;;;;;;;0.60;0.60;;;14.10;64.30;;;;;;5034206;28;20431;-73
2021/01/07 11:27:14;;;;;;;0.80;0.52;;;14.10;64.30;;;;;;5019763;28;20025;-74
2021/01/07 11:29:44;;;;;;;1.02;0.93;;;14.10;64.30;;;;;;5032040;28;20057;-74
2021/01/07 11:32:10;;;;;;;1.00;0.73;;;14.10;64.20;;;;;;5024022;28;20025;-74
2021/01/07 11:34:35;;;;;;;0.80;0.80;;;14.10;64.20;;;;;;5014851;28;20084;-73
2021/01/07 11:37:13;;;;;;;1.23;0.85;;;14.10;64.20;;;;;;5008256;28;20116;-73
2021/01/07 11:40:05;;;;;;;1.02;0.82;;;14.10;64.20;;;;;;5037081;28;20076;-74
2021/01/07 11:42:53;;;;;;;0.60;0.60;;;14.10;64.10;;;;;;5030745;28;20391;-74
2021/01/07 11:45:30;;;;;;;0.60;0.60;;;14.20;64.10;;;;;;5020404;28;20035;-73
2021/01/07 11:48:08;;;;;;;0.93;0.77;;;14.20;64.10;;;;;;5029109;28;20029;-74
2021/01/07 11:50:46;;;;;;;0.65;0.65;;;14.10;64.10;;;;;;5032956;28;20026;-73
2021/01/07 11:53:17;;;;;;;0.70;0.50;;;14.20;64.10;;;;;;5019312;28;20104;-74
2021/01/07 11:55:47;;;;;;;1.10;0.80;;;14.10;64.10;;;;;;5002286;28;20040;-74
2021/01/07 11:58:18;;;;;;;0.60;0.55;;;14.10;64.10;;;;;;5028542;28;20025;-74
2021/01/07 12:00:48;;;;;;;0.60;0.60;;;14.10;64.10;;;;;;5023597;28;20036;-74
2021/01/07 12:03:14;;;;;;;0.40;0.40;;;14.10;64.20;;;;;;5022866;28;20486;-74
2021/01/07 12:05:41;;;;;;;0.82;0.70;;;14.10;64.10;;;;;;5015681;28;20489;-74
2021/01/07 12:08:24;;;;;;;0.90;0.70;;;14.10;64.10;;;;;;5029634;28;20368;-73
2021/01/07 12:10:54;;;;;;;1.13;0.95;;;14.10;64.10;;;;;;5029402;28;20031;-74
2021/01/07 12:13:40;;;;;;;0.90;0.70;;;14.10;64.10;;;;;;5032304;28;20048;-73
2021/01/07 12:16:13;;;;;;;0.75;0.75;;;14.10;64.10;;;;;;5028778;28;20022;-74
2021/01/07 12:18:39;;;;;;;0.63;0.60;;;14.10;64.10;;;;;;5030544;28;20466;-73
2021/01/07 12:21:05;;;;;;;1.33;0.98;;;14.10;64.10;;;;;;5032225;28;20502;-74
2021/01/07 12:23:34;;;;;;;0.82;0.70;;;14.10;64.10;;;;;;5025558;28;20021;-74
2021/01/07 12:26:00;;;;;;;1.00;0.68;;;14.10;64.20;;;;;;5030933;28;20030;-73
2021/01/07 12:28:26;;;;;;;0.75;0.63;;;14.10;64.20;;;;;;5030237;28;20041;-73
2021/01/07 12:30:57;;;;;;;0.70;0.70;;;14.10;64.10;;;;;;5033089;28;20108;-73
2021/01/07 12:33:55;;;;;;;0.77;0.70;;;14.10;64.10;;;;;;5031337;28;20497;-73
2021/01/07 12:36:43;;;;;;;1.20;0.90;;;14.10;64.10;;;;;;5014810;28;20426;-73
2021/01/07 12:39:31;;;;;;;0.60;0.55;;;14.20;64.20;;;;;;5031401;28;20056;-73
2021/01/07 12:41:57;;;;;;;0.88;0.80;;;14.10;64.10;;;;;;5011015;28;20029;-74
2021/01/07 12:44:24;;;;;;;1.10;0.77;;;14.10;64.10;;;;;;5030262;28;20029;-74
2021/01/07 12:46:56;;;;;;;0.70;0.47;;;14.10;64.20;;;;;;5030011;28;20479;-74
2021/01/07 12:49:28;;;;;;;0.70;0.68;;;14.10;64.20;;;;;;5020852;28;20045;-74
2021/01/07 12:51:54;;;;;;;0.65;0.50;;;14.10;64.20;;;;;;5032322;28;20030;-74
2021/01/07 12:54:20;;;;;;;0.82;0.77;;;14.10;64.20;;;;;;5032340;28;20041;-73
2021/01/07 12:56:58;;;;;;;1.10;0.73;;;14.10;64.20;;;;;;5031920;28;20021;-74
2021/01/07 12:59:25;;;;;;;;;;;14.10;64.20;;;;;;5028763;28;20526;-73
2021/01/07 13:02:06;;;;;;;1.15;0.85;;;14.10;64.20;;;;;;5013572;28;19919;-73